F/V Berceaudelocean — FQEB — position and weather

sailwx.info

Track history (hours):
 
Tides and Currents Weather Stations Pressure Air Temp Water Temp Dewpoint Dewpoint Depression Visibility Wind Speed Wind Dir Waves Ship Positions

F/V Berceaudelocean

Last reported at 2018-Feb-15 21:27 UTC. Time now 2018-Feb-19 12:14 UTC.
Position N 47°51' W 003°56'.

Type: Fishing. MMSI: 228156900.

Date/timePositionNaut miles runAvg speedWind from/ knotsBaromVisibWave heightAir tempDewpointWater temp
2018-Feb-15 21:27N 47°51' W 003°56'3 7.1
2018-Feb-15 20:58N 47°48' W 003°57'3 6.6
2018-Feb-15 20:30N 47°45' W 003°57'5 9.2
2018-Feb-15 19:58N 47°42' W 003°52'510.1
2018-Feb-15 19:30N 47°41' W 003°45'510.1
2018-Feb-15 19:00N 47°41' W 003°37'510.1
2018-Feb-15 18:31N 47°40' W 003°30'2 3.1
2018-Feb-15 18:00N 47°41' W 003°29'5 9.7
2018-Feb-15 17:30N 47°44' W 003°35'5 9.7
2018-Feb-15 17:00N 47°45' W 003°42'5 9.8
2018-Feb-15 16:30N 47°45' W 003°50'7 9.1
2018-Feb-15 15:47N 47°50' W 003°57'1 0.1
2018-Feb-14 17:48N 47°49' W 003°58'1 0.0
2018-Feb-12 19:08N 47°50' W 003°56'1 9.9
2018-Feb-12 18:59N 47°49' W 003°55'17 6.5
2018-Feb-12 16:18N 47°45' W 004°20'4 9.0
2018-Feb-12 15:52N 47°48' W 004°25'4 9.5
2018-Feb-12 15:28N 47°45' W 004°20'17 1.0
2018-Feb-11 22:29N 47°50' W 003°56'9 9.0
2018-Feb-11 21:28N 47°45' W 003°45'4 9.7
2018-Feb-11 21:01N 47°45' W 003°38'4 8.1
2018-Feb-11 20:30N 47°43' W 003°33'5 9.0
2018-Feb-11 20:00N 47°42' W 003°39'510.1
2018-Feb-11 19:30N 47°44' W 003°46'1010.0
2018-Feb-11 18:33N 47°49' W 003°58'1 7.9
2018-Feb-11 18:23N 47°50' W 003°60'  
2018-Feb-07 22:53N 47°49' W 003°57'5 9.6
2018-Feb-07 22:23N 47°44' W 003°56'5 0.2
2018-Feb-06 21:36N 47°49' W 003°57'1 9.5
2018-Feb-06 21:28N 47°48' W 003°57'5 9.3
2018-Feb-06 20:57N 47°43' W 003°56'8 0.5
2018-Feb-06 02:53N 47°51' W 003°56'711.7
2018-Feb-06 02:19N 47°45' W 003°59'5 6.3
2018-Feb-06 01:31N 47°42' W 004°04'  
Track history (hours):
 
Tides and Currents Weather Stations Pressure Air Temp Water Temp Dewpoint Dewpoint Depression Visibility Wind Speed Wind Dir Waves Ship Positions

F/V Berceaudelocean

Last reported at 2018-Feb-15 21:27 UTC. Time now 2018-Feb-19 12:14 UTC.
Position N 47°51' W 003°56'.

Type: Fishing. MMSI: 228156900.

Date/timePositionNaut miles runAvg speedWind from/ knotsBaromVisibWave heightAir tempDewpointWater temp
2018-Feb-15 21:27N 47°51' W 003°56'3 7.1
2018-Feb-15 20:58N 47°48' W 003°57'3 6.6
2018-Feb-15 20:30N 47°45' W 003°57'5 9.2
2018-Feb-15 19:58N 47°42' W 003°52'510.1
2018-Feb-15 19:30N 47°41' W 003°45'510.1
2018-Feb-15 19:00N 47°41' W 003°37'510.1
2018-Feb-15 18:31N 47°40' W 003°30'2 3.1
2018-Feb-15 18:00N 47°41' W 003°29'5 9.7
2018-Feb-15 17:30N 47°44' W 003°35'5 9.7
2018-Feb-15 17:00N 47°45' W 003°42'5 9.8
2018-Feb-15 16:30N 47°45' W 003°50'7 9.1
2018-Feb-15 15:47N 47°50' W 003°57'1 0.1
2018-Feb-14 17:48N 47°49' W 003°58'1 0.0
2018-Feb-12 19:08N 47°50' W 003°56'1 9.9
2018-Feb-12 18:59N 47°49' W 003°55'17 6.5
2018-Feb-12 16:18N 47°45' W 004°20'4 9.0
2018-Feb-12 15:52N 47°48' W 004°25'4 9.5
2018-Feb-12 15:28N 47°45' W 004°20'17 1.0
2018-Feb-11 22:29N 47°50' W 003°56'9 9.0
2018-Feb-11 21:28N 47°45' W 003°45'4 9.7
2018-Feb-11 21:01N 47°45' W 003°38'4 8.1
2018-Feb-11 20:30N 47°43' W 003°33'5 9.0
2018-Feb-11 20:00N 47°42' W 003°39'510.1
2018-Feb-11 19:30N 47°44' W 003°46'1010.0
2018-Feb-11 18:33N 47°49' W 003°58'1 7.9
2018-Feb-11 18:23N 47°50' W 003°60'  
2018-Feb-07 22:53N 47°49' W 003°57'5 9.6
2018-Feb-07 22:23N 47°44' W 003°56'5 0.2
2018-Feb-06 21:36N 47°49' W 003°57'1 9.5
2018-Feb-06 21:28N 47°48' W 003°57'5 9.3
2018-Feb-06 20:57N 47°43' W 003°56'8 0.5
2018-Feb-06 02:53N 47°51' W 003°56'711.7
2018-Feb-06 02:19N 47°45' W 003°59'5 6.3
2018-Feb-06 01:31N 47°42' W 004°04'  

Dump ship's entire track history